KSAVKSSI

Guest
Details From KSAV - Savannah Hilton Head Intl
To KSSI - MALCOLM MCKINNON
Flight Number -
Tags generated
Created
Modified
Stats Distance 59 nm / 110 km
Max Altitude 4,000 ft / 1,219 m
Waypoints 3
Social Downloads 1
Likes 0
Share VATSIM

Download

Looking for another format? Having issues loading an existing format? Contact us
Advertisement - Login to hide

Notes

Basic altitude profile: - Ascent Rate: 1500ft/min - Ascent Speed: 90kts - Cruise Altitude: 6500ft - Cruise Speed: 110kts - Descent Rate: 1500ft/min - Descent Speed: 100kts Options: - Use NATs: yes - Use PACOTS: no - Use low airways: yes - Use high airways: no

Route

KSAV BROUN KSSI

ID Type Via Altitude Latitude Longitude Leg Dist Tot Dist Heading (true) Name
O KSAV APT - 0 ft / 0 m 32.12740˚ -81.20188˚ - 0 nm - Savannah Hilton Head Intl
BROUN FIX - 4,000 ft / 1,219 m 31.46009˚ -81.32387˚ 40 nm 40 nm 189° / 189° -
O KSSI APT - 0 ft / 0 m 31.15187˚ -81.39026˚ 18 nm 59 nm 190° / 190° MALCOLM MCKINNON

Altitude Profile

Advertisement - Login to hide

KSAV

Details ICAO KSAV (SAV)
Name Savannah Hilton Head Intl
Region United States
Timezone America/New_York (UTC-5.0)
Stats Elevation 51 ft / 16 m (AMSL)
Location 32.127403° -81.201878°
Runways 2
Magnetic Variation 7.027° W

METAR

KSAV 151353Z 23005KT 10SM BKN180 11/06 A3003 RMK AO2 SLP169 T01060061

Decode

TAF

TAF KSAV 151120Z 1512/1612 25004KT P6SM BKN200 FM152000 27010KT P6SM BKN200 FM160300 30006KT P6SM OVC150 FM160900 34004KT P6SM SCT250

Decode

Departure Runways

ID Width Length Bearing (true) Bearing (mag) Surface Threshold Offset Overrun Length
01 150 ft / 46 m 7,024 ft / 2,141 m 359.63° 6.66° Concrete 0 ft / 0 m 0 ft / 0 m
10 150 ft / 46 m 9,334 ft / 2,845 m 90.61° 97.64° Concrete 0 ft / 0 m 1,000 ft / 305 m
19 150 ft / 46 m 7,024 ft / 2,141 m 179.63° 186.66° Concrete 0 ft / 0 m 0 ft / 0 m
28 150 ft / 46 m 9,334 ft / 2,845 m 270.63° 277.66° Concrete 0 ft / 0 m 150 ft / 46 m

KSSI

Details ICAO KSSI (SSI)
Name MALCOLM MCKINNON
Region United States
Timezone America/New_York (UTC-5.0)
Stats Elevation 19 ft / 6 m (AMSL)
Location 31.151867° -81.390263°
Runways 2
Magnetic Variation 6.756° W

METAR

KSSI 151353Z AUTO 10SM CLR 12/09 A3005 RMK AO2 SLP177 T01220094

Decode

TAF

TAF KSSI 151120Z 1512/1612 23004KT P6SM SCT120 BKN250 FM151500 24007KT P6SM SCT030 BKN100 FM160000 VRB04KT P6SM BKN250

Decode

Destination Runways

ID Width Length Bearing (true) Bearing (mag) Surface Threshold Offset Overrun Length
04 100 ft / 30 m 5,808 ft / 1,770 m 35.96° 42.72° Asphalt 1,000 ft / 305 m 0 ft / 0 m
16 75 ft / 23 m 3,320 ft / 1,012 m 154.23° 160.99° Asphalt 0 ft / 0 m 0 ft / 0 m
22 100 ft / 30 m 5,808 ft / 1,770 m 215.97° 222.73° Asphalt 910 ft / 277 m 0 ft / 0 m
34 75 ft / 23 m 3,320 ft / 1,012 m 334.23° 340.99° Asphalt 0 ft / 0 m 233 ft / 71 m